createdAt,value
2017-03-10T00:00:52.371Z,0
2017-03-10T00:02:00.998Z,0
2017-03-10T00:03:10.264Z,0
2017-03-10T00:04:19.278Z,0
2017-03-10T00:05:28.681Z,0
2017-03-10T00:06:37.695Z,0
2017-03-10T00:07:46.700Z,0
2017-03-10T00:08:55.295Z,0
2017-03-10T00:10:04.301Z,0
2017-03-10T00:11:14.102Z,0
2017-03-10T00:12:23.112Z,0
2017-03-10T00:13:32.108Z,0
2017-03-10T00:14:41.105Z,0
2017-03-10T00:15:50.516Z,0
2017-03-10T00:16:59.130Z,0
2017-03-10T00:18:08.132Z,0
2017-03-10T00:19:16.725Z,0
2017-03-10T00:20:25.328Z,0
2017-03-10T00:21:34.335Z,0
2017-03-10T00:22:44.532Z,0
2017-03-10T00:23:53.124Z,0
2017-03-10T00:25:02.531Z,0
2017-03-10T00:26:11.540Z,0
2017-03-10T00:27:20.942Z,0
2017-03-10T00:28:29.971Z,0
2017-03-10T00:29:38.565Z,0
2017-03-10T00:30:47.985Z,0
2017-03-10T00:31:56.997Z,0
2017-03-10T00:33:06.003Z,0
2017-03-10T00:34:15.239Z,0
2017-03-10T00:35:23.841Z,0
2017-03-10T00:36:32.467Z,0
2017-03-10T00:37:41.084Z,0
2017-03-10T00:38:50.494Z,0
2017-03-10T00:39:59.089Z,0
2017-03-10T00:41:08.101Z,0
2017-03-10T00:42:17.118Z,0
2017-03-10T00:43:26.125Z,0
2017-03-10T00:44:34.729Z,0
2017-03-10T00:45:43.732Z,0
2017-03-10T00:46:52.759Z,0
2017-03-10T00:48:01.776Z,0
2017-03-10T00:49:11.981Z,0
2017-03-10T00:50:20.980Z,0
2017-03-10T00:51:29.970Z,0
2017-03-10T00:52:38.573Z,0
2017-03-10T00:53:47.174Z,0
2017-03-10T00:54:56.181Z,0
2017-03-10T00:56:04.817Z,0
2017-03-10T00:57:13.437Z,0
2017-03-10T00:58:22.468Z,0
2017-03-10T00:59:31.462Z,0
2017-03-10T01:00:40.497Z,0
2017-03-10T01:01:49.501Z,0
2017-03-10T01:02:58.501Z,0
2017-03-10T01:04:07.513Z,0
2017-03-10T01:05:16.126Z,0
2017-03-10T01:06:25.532Z,0
2017-03-10T01:07:34.528Z,0
2017-03-10T01:08:43.524Z,0
2017-03-10T01:09:52.528Z,0
2017-03-10T01:11:02.348Z,0
2017-03-10T01:12:11.756Z,0
2017-03-10T01:13:21.156Z,0
2017-03-10T01:14:30.560Z,0
2017-03-10T01:15:39.751Z,0
2017-03-10T01:16:48.361Z,0
2017-03-10T01:17:57.375Z,0
2017-03-10T01:19:06.389Z,0
2017-03-10T01:20:15.438Z,0
2017-03-10T01:21:24.455Z,0
2017-03-10T01:22:33.476Z,0
2017-03-10T01:23:42.912Z,0
2017-03-10T01:24:51.930Z,0
2017-03-10T01:26:01.736Z,0
2017-03-10T01:27:10.753Z,0
2017-03-10T01:28:20.151Z,0
2017-03-10T01:29:29.582Z,0
2017-03-10T01:30:38.977Z,0
2017-03-10T01:31:47.993Z,0
2017-03-10T01:32:57.793Z,0
2017-03-10T01:34:06.787Z,0
2017-03-10T01:35:16.212Z,0
2017-03-10T01:36:24.845Z,0
2017-03-10T01:37:34.275Z,0
2017-03-10T01:38:44.088Z,0
2017-03-10T01:39:53.105Z,0
2017-03-10T01:41:02.148Z,0
2017-03-10T01:42:11.165Z,0
2017-03-10T01:43:20.171Z,0
2017-03-10T01:44:29.172Z,0
2017-03-10T01:45:38.192Z,0
2017-03-10T01:46:47.585Z,0
2017-03-10T01:47:56.593Z,0
2017-03-10T01:49:05.989Z,0
2017-03-10T01:50:14.985Z,0
2017-03-10T01:51:23.999Z,0
2017-03-10T01:52:33.403Z,0
2017-03-10T01:53:43.616Z,0
2017-03-10T01:54:53.032Z,0
2017-03-10T01:56:02.032Z,0
2017-03-10T01:57:11.036Z,0
2017-03-10T01:58:20.037Z,0
2017-03-10T01:59:29.446Z,0
2017-03-10T02:00:38.466Z,0
2017-03-10T02:01:47.869Z,0
2017-03-10T02:02:56.465Z,0
2017-03-10T02:04:05.465Z,0
2017-03-10T02:05:14.472Z,0
2017-03-10T02:06:23.882Z,0
2017-03-10T02:07:32.483Z,0
2017-03-10T02:08:42.316Z,0
2017-03-10T02:09:50.944Z,0
2017-03-10T02:10:59.952Z,0
2017-03-10T02:12:08.946Z,0
2017-03-10T02:13:17.956Z,0
2017-03-10T02:14:26.967Z,0
2017-03-10T02:15:36.370Z,0
2017-03-10T02:16:44.967Z,0
2017-03-10T02:17:54.767Z,0
2017-03-10T02:19:03.791Z,0
2017-03-10T02:20:12.791Z,0
2017-03-10T02:21:21.783Z,0
2017-03-10T02:22:30.380Z,0
2017-03-10T02:23:38.983Z,0
2017-03-10T02:24:48.377Z,0
2017-03-10T02:25:57.370Z,0
2017-03-10T02:27:05.968Z,0
2017-03-10T02:28:14.989Z,0
2017-03-10T02:29:24.387Z,0
2017-03-10T02:30:33.376Z,0
2017-03-10T02:31:41.990Z,0
2017-03-10T02:32:50.589Z,0
2017-03-10T02:33:59.216Z,0
2017-03-10T02:35:08.614Z,0
2017-03-10T02:36:17.222Z,0
2017-03-10T02:37:26.217Z,0
2017-03-10T02:38:35.629Z,0
2017-03-10T02:39:44.653Z,0
2017-03-10T02:40:53.641Z,0
2017-03-10T02:42:02.657Z,0
2017-03-10T02:43:11.680Z,0
2017-03-10T02:44:20.693Z,0
2017-03-10T02:45:29.691Z,0
2017-03-10T02:46:38.698Z,0
2017-03-10T02:47:47.705Z,0
2017-03-10T02:48:56.318Z,0
2017-03-10T02:50:04.923Z,0
2017-03-10T02:51:14.352Z,0
2017-03-10T02:52:24.162Z,0
2017-03-10T02:53:32.757Z,0
2017-03-10T02:54:42.158Z,0
2017-03-10T02:55:51.568Z,0
2017-03-10T02:57:00.984Z,0
2017-03-10T02:58:09.982Z,0
2017-03-10T02:59:18.584Z,0
2017-03-10T03:00:27.609Z,0
2017-03-10T03:01:36.999Z,0
2017-03-10T03:02:46.395Z,0
2017-03-10T03:03:55.709Z,0
2017-03-10T03:05:04.702Z,0
2017-03-10T03:06:13.307Z,0
2017-03-10T03:07:22.323Z,0
2017-03-10T03:08:31.337Z,0
2017-03-10T03:09:39.929Z,0
2017-03-10T03:10:49.723Z,0
2017-03-10T03:11:58.343Z,0
2017-03-10T03:13:07.731Z,0
2017-03-10T03:14:16.333Z,0
2017-03-10T03:15:25.371Z,0
2017-03-10T03:16:34.379Z,0
2017-03-10T03:17:44.182Z,0
2017-03-10T03:18:53.588Z,0
2017-03-10T03:20:03.402Z,0
2017-03-10T03:21:12.423Z,0
2017-03-10T03:22:21.539Z,0
2017-03-10T03:23:30.570Z,0
2017-03-10T03:24:39.581Z,0
2017-03-10T03:25:48.635Z,0
2017-03-10T03:26:57.629Z,0
2017-03-10T03:28:06.631Z,0
2017-03-10T03:29:15.623Z,0
2017-03-10T03:30:24.659Z,0
2017-03-10T03:31:34.051Z,0
2017-03-10T03:32:43.054Z,0
2017-03-10T03:33:52.502Z,0
2017-03-10T03:35:01.098Z,0
2017-03-10T03:36:10.114Z,0
2017-03-10T03:37:18.704Z,0
2017-03-10T03:38:27.697Z,0
2017-03-10T03:39:36.314Z,0
2017-03-10T03:40:44.923Z,0
2017-03-10T03:41:54.319Z,0
2017-03-10T03:43:03.319Z,0
2017-03-10T03:44:12.317Z,0
2017-03-10T03:45:21.725Z,0
2017-03-10T03:46:30.348Z,0
2017-03-10T03:47:39.343Z,0
2017-03-10T03:48:48.337Z,0
2017-03-10T03:49:57.378Z,0
2017-03-10T03:51:06.773Z,0
2017-03-10T03:52:15.769Z,0
2017-03-10T03:53:24.768Z,0
2017-03-10T03:54:34.163Z,0
2017-03-10T03:55:42.772Z,0
2017-03-10T03:56:51.776Z,0
2017-03-10T03:58:01.185Z,0
2017-03-10T03:59:10.206Z,0
2017-03-10T04:00:19.217Z,0
2017-03-10T04:01:28.226Z,0
2017-03-10T04:02:36.848Z,0
2017-03-10T04:03:46.274Z,0
2017-03-10T04:04:55.673Z,0
2017-03-10T04:06:04.697Z,0
2017-03-10T04:07:13.703Z,0
2017-03-10T04:08:22.717Z,0
2017-03-10T04:09:32.110Z,0
2017-03-10T04:10:41.133Z,0
2017-03-10T04:11:49.723Z,0
2017-03-10T04:12:58.348Z,0
2017-03-10T04:14:06.979Z,0
2017-03-10T04:15:16.390Z,0
2017-03-10T04:16:25.408Z,0
2017-03-10T04:17:34.425Z,0
2017-03-10T04:18:43.851Z,0
2017-03-10T04:19:52.870Z,0
2017-03-10T04:21:01.467Z,0
2017-03-10T04:22:10.487Z,0
2017-03-10T04:23:19.094Z,0
2017-03-10T04:24:27.690Z,0
2017-03-10T04:25:37.113Z,0
2017-03-10T04:26:46.129Z,0
2017-03-10T04:27:55.526Z,0
2017-03-10T04:29:04.564Z,0
2017-03-10T04:30:13.176Z,0
2017-03-10T04:31:21.776Z,0
2017-03-10T04:32:30.365Z,0
2017-03-10T04:33:38.985Z,0
2017-03-10T04:34:47.994Z,0
2017-03-10T04:35:57.023Z,0
2017-03-10T04:37:06.411Z,0
2017-03-10T04:38:15.806Z,0
2017-03-10T04:39:24.438Z,0
2017-03-10T04:40:33.039Z,0
2017-03-10T04:41:42.598Z,0
2017-03-10T04:42:51.852Z,0
2017-03-10T04:44:01.197Z,0
2017-03-10T04:45:11.451Z,0
2017-03-10T04:46:21.722Z,0
2017-03-10T04:47:31.524Z,0
2017-03-10T04:48:41.431Z,0
2017-03-10T04:49:50.424Z,0
2017-03-10T04:51:00.230Z,0
2017-03-10T04:52:08.848Z,0
2017-03-10T04:53:17.859Z,0
2017-03-10T04:54:27.251Z,0
2017-03-10T04:55:35.858Z,0
2017-03-10T04:56:44.849Z,0
2017-03-10T04:57:53.854Z,0
2017-03-10T04:59:02.875Z,0
2017-03-10T05:00:11.876Z,0
2017-03-10T05:01:20.490Z,0
2017-03-10T05:02:29.898Z,0
2017-03-10T05:03:39.316Z,0
2017-03-10T05:04:47.931Z,0
2017-03-10T05:05:56.939Z,0
2017-03-10T05:07:05.532Z,0
2017-03-10T05:08:14.922Z,0
2017-03-10T05:09:23.913Z,0
2017-03-10T05:10:32.506Z,0
2017-03-10T05:11:41.502Z,0
2017-03-10T05:12:50.134Z,0
2017-03-10T05:13:58.738Z,0
2017-03-10T05:15:08.157Z,0
2017-03-10T05:16:17.960Z,0
2017-03-10T05:17:26.558Z,0
2017-03-10T05:18:35.559Z,0
2017-03-10T05:19:44.170Z,0
2017-03-10T05:20:53.178Z,0
2017-03-10T05:22:02.599Z,0
2017-03-10T05:23:11.205Z,0
2017-03-10T05:24:19.832Z,0
2017-03-10T05:25:29.629Z,0
2017-03-10T05:26:38.631Z,0
2017-03-10T05:27:47.629Z,0
2017-03-10T05:28:57.038Z,4
2017-03-10T05:30:06.051Z,0
2017-03-10T05:31:14.677Z,4
2017-03-10T05:32:23.724Z,4
2017-03-10T05:33:32.731Z,4
2017-03-10T05:34:41.760Z,8
2017-03-10T05:35:50.755Z,8
2017-03-10T05:37:00.179Z,8
2017-03-10T05:38:09.583Z,12
2017-03-10T05:39:18.593Z,12
2017-03-10T05:40:27.993Z,20
2017-03-10T05:41:36.593Z,20
2017-03-10T05:42:45.644Z,28
2017-03-10T05:43:55.437Z,32
2017-03-10T05:45:04.456Z,36
2017-03-10T05:46:13.085Z,48
2017-03-10T05:47:21.687Z,56
2017-03-10T05:48:30.351Z,64
2017-03-10T05:49:39.765Z,76
2017-03-10T05:50:48.394Z,88
2017-03-10T05:51:57.408Z,100
2017-03-10T05:53:06.407Z,116
2017-03-10T05:54:14.998Z,136
2017-03-10T05:55:23.610Z,152
2017-03-10T05:56:32.212Z,172
2017-03-10T05:57:40.802Z,192
2017-03-10T05:58:49.824Z,216
2017-03-10T05:59:58.428Z,240
2017-03-10T06:01:07.456Z,264
2017-03-10T06:02:16.862Z,292
2017-03-10T06:03:25.877Z,320
2017-03-10T06:04:34.868Z,352
2017-03-10T06:05:44.289Z,384
2017-03-10T06:06:53.319Z,420
2017-03-10T06:08:01.962Z,448
2017-03-10T06:09:10.590Z,484
2017-03-10T06:10:19.206Z,520
2017-03-10T06:11:28.644Z,556
2017-03-10T06:12:37.658Z,600
2017-03-10T06:13:46.654Z,636
2017-03-10T06:14:56.124Z,676
2017-03-10T06:16:05.553Z,720
2017-03-10T06:17:14.550Z,760
2017-03-10T06:18:23.970Z,804
2017-03-10T06:19:32.989Z,844
2017-03-10T06:20:42.412Z,888
2017-03-10T06:21:51.056Z,932
2017-03-10T06:22:59.679Z,972
2017-03-10T06:24:09.106Z,1020
2017-03-10T06:25:18.514Z,1064
2017-03-10T06:26:27.536Z,1108
2017-03-10T06:27:36.157Z,1148
2017-03-10T06:28:44.758Z,1192
2017-03-10T06:29:54.194Z,1240
2017-03-10T06:31:03.195Z,1288
2017-03-10T06:32:12.223Z,1336
2017-03-10T06:33:20.845Z,1388
2017-03-10T06:34:29.840Z,1432
2017-03-10T06:35:39.664Z,1484
2017-03-10T06:36:48.267Z,1528
2017-03-10T06:37:57.283Z,1576
2017-03-10T06:39:07.096Z,1628
2017-03-10T06:40:15.693Z,1676
2017-03-10T06:41:25.091Z,1716
2017-03-10T06:42:34.511Z,1760
2017-03-10T06:44:13.227Z,1828
2017-03-10T06:45:22.238Z,1892
2017-03-10T06:46:31.710Z,1928
2017-03-10T06:47:40.738Z,1968
2017-03-10T06:48:49.774Z,2036
2017-03-10T06:49:58.779Z,2060
2017-03-10T06:51:08.575Z,2108
2017-03-10T06:52:18.019Z,2156
2017-03-10T06:53:27.105Z,2296
2017-03-10T06:54:35.735Z,2552
2017-03-10T06:55:45.552Z,2368
2017-03-10T06:56:54.548Z,2340
2017-03-10T06:58:03.573Z,2520
2017-03-10T06:59:12.568Z,2856
2017-03-10T07:00:21.161Z,2852
2017-03-10T07:01:30.964Z,3464
2017-03-10T07:02:39.965Z,3108
2017-03-10T07:03:48.974Z,3100
2017-03-10T07:04:58.385Z,2980
2017-03-10T07:06:07.001Z,3136
2017-03-10T07:07:15.592Z,3436
2017-03-10T07:08:24.192Z,3308
2017-03-10T07:09:33.199Z,3228
2017-03-10T07:10:43.029Z,3296
2017-03-10T07:11:52.020Z,3488
2017-03-10T07:13:01.078Z,4060
2017-03-10T07:14:10.082Z,3980
2017-03-10T07:15:18.688Z,3464
2017-03-10T07:16:28.102Z,3704
2017-03-10T07:17:37.511Z,3912
2017-03-10T07:18:46.120Z,4020
2017-03-10T07:19:55.527Z,3344
2017-03-10T07:21:04.149Z,3176
2017-03-10T07:22:13.166Z,3276
2017-03-10T07:23:22.175Z,3164
2017-03-10T07:24:31.577Z,3904
2017-03-10T07:25:41.016Z,3520
2017-03-10T07:26:51.020Z,3208
2017-03-10T07:28:00.509Z,3748
2017-03-10T07:29:09.125Z,3748
2017-03-10T07:30:18.125Z,3448
2017-03-10T07:31:27.728Z,3348
2017-03-10T07:32:36.807Z,3184
2017-03-10T07:33:45.410Z,4216
2017-03-10T07:34:54.426Z,4376
2017-03-10T07:36:03.518Z,4932
2017-03-10T07:37:12.515Z,5208
2017-03-10T07:38:21.517Z,5500
2017-03-10T07:39:30.515Z,5260
2017-03-10T07:40:39.164Z,4936
2017-03-10T07:41:48.208Z,3868
2017-03-10T07:42:56.832Z,3756
2017-03-10T07:44:05.877Z,4228
2017-03-10T07:45:14.474Z,4676
2017-03-10T07:46:23.704Z,4968
2017-03-10T07:47:32.305Z,5204
2017-03-10T07:48:40.915Z,5400
2017-03-10T07:49:49.612Z,5352
2017-03-10T07:50:58.662Z,4492
2017-03-10T07:52:09.278Z,5484
2017-03-10T07:53:18.727Z,4332
2017-03-10T07:54:27.749Z,3892
2017-03-10T07:55:36.757Z,5132
2017-03-10T07:56:45.752Z,4576
2017-03-10T07:57:54.380Z,4240
2017-03-10T07:59:03.425Z,4704
2017-03-10T08:00:12.061Z,4472
2017-03-10T08:01:21.462Z,4744
2017-03-10T08:02:30.481Z,4524
2017-03-10T08:03:39.667Z,4972
2017-03-10T08:04:49.082Z,5608
2017-03-10T08:05:58.135Z,5288
2017-03-10T08:07:06.748Z,5708
2017-03-10T08:08:15.351Z,5788
2017-03-10T08:09:23.977Z,5492
2017-03-10T08:10:33.795Z,5380
2017-03-10T08:11:42.395Z,5956
2017-03-10T08:12:51.398Z,6260
2017-03-10T08:14:00.418Z,5332
2017-03-10T08:15:09.050Z,4508
2017-03-10T08:16:18.450Z,5984
2017-03-10T08:17:27.465Z,6396
2017-03-10T08:18:36.086Z,5252
2017-03-10T08:19:45.506Z,6672
2017-03-10T08:20:54.122Z,7596
2017-03-10T08:22:02.787Z,7828
2017-03-10T08:23:11.401Z,9944
2017-03-10T08:24:20.410Z,11012
2017-03-10T08:25:29.424Z,11200
2017-03-10T08:26:38.301Z,10584
2017-03-10T08:27:47.302Z,10040
2017-03-10T08:28:56.312Z,9388
2017-03-10T08:30:05.361Z,7604
2017-03-10T08:31:14.383Z,5440
2017-03-10T08:32:23.389Z,5724
2017-03-10T08:33:32.467Z,6488
2017-03-10T08:34:41.146Z,6896
2017-03-10T08:35:50.551Z,7028
2017-03-10T08:36:59.570Z,7864
2017-03-10T08:38:08.581Z,8972
2017-03-10T08:39:17.616Z,9744
2017-03-10T08:40:26.636Z,9404
2017-03-10T08:41:35.663Z,9236
2017-03-10T08:42:44.255Z,8696
2017-03-10T08:43:53.679Z,8684
2017-03-10T08:45:02.695Z,6212
2017-03-10T08:46:11.756Z,5836
2017-03-10T08:47:21.172Z,7280
2017-03-10T08:48:29.776Z,7900
2017-03-10T08:49:39.177Z,7188
2017-03-10T08:50:47.787Z,6844
2017-03-10T08:51:56.798Z,7180
2017-03-10T08:53:06.929Z,7396
2017-03-10T08:54:15.954Z,7788
2017-03-10T08:55:24.572Z,7012
2017-03-10T08:56:33.188Z,6316
2017-03-10T08:57:42.193Z,6624
2017-03-10T08:58:50.798Z,7784
2017-03-10T08:59:59.453Z,9340
2017-03-10T09:01:08.271Z,8540
2017-03-10T09:02:17.282Z,7104
2017-03-10T09:03:28.141Z,6340
2017-03-10T09:04:38.531Z,6360
2017-03-10T09:05:47.494Z,7560
2017-03-10T09:06:56.198Z,8968
2017-03-10T09:08:05.947Z,9188
2017-03-10T09:09:16.361Z,9144
2017-03-10T09:10:25.366Z,8992
2017-03-10T09:11:34.383Z,7952
2017-03-10T09:12:42.995Z,6288
2017-03-10T09:13:51.649Z,5212
2017-03-10T09:15:00.714Z,5028
2017-03-10T09:16:11.161Z,4524
2017-03-10T09:17:21.783Z,4580
2017-03-10T09:18:30.796Z,5616
2017-03-10T09:19:40.631Z,7308
2017-03-10T09:20:49.232Z,9640
2017-03-10T09:21:57.911Z,9512
2017-03-10T09:23:06.946Z,7756
2017-03-10T09:24:15.575Z,7364
2017-03-10T09:25:24.621Z,6644
2017-03-10T09:26:33.634Z,7116
2017-03-10T09:27:43.121Z,6672
2017-03-10T09:28:52.552Z,6128
2017-03-10T09:30:01.594Z,5692
2017-03-10T09:31:10.617Z,6472
2017-03-10T09:32:19.626Z,8084
2017-03-10T09:33:28.630Z,8644
2017-03-10T09:34:37.639Z,9144
2017-03-10T09:35:46.660Z,9624
2017-03-10T09:36:55.672Z,10668
2017-03-10T09:38:05.082Z,8244
2017-03-10T09:39:14.078Z,6552
2017-03-10T09:40:22.683Z,6912
2017-03-10T09:41:32.104Z,7404
2017-03-10T09:42:41.500Z,7192
2017-03-10T09:43:50.124Z,8232
2017-03-10T09:44:58.745Z,8516
2017-03-10T09:46:07.773Z,7096
2017-03-10T09:47:16.811Z,5476
2017-03-10T09:48:26.223Z,5228
2017-03-10T09:49:35.232Z,4508
2017-03-10T09:50:44.228Z,4036
2017-03-10T09:51:53.640Z,3640
2017-03-10T09:53:02.268Z,3680
2017-03-10T09:54:10.879Z,3772
2017-03-10T09:55:19.626Z,3712
2017-03-10T09:56:29.062Z,3316
2017-03-10T09:57:37.674Z,3464
2017-03-10T09:58:46.289Z,3436
2017-03-10T09:59:55.289Z,3488
2017-03-10T10:01:04.292Z,3568
2017-03-10T10:02:13.756Z,3848
2017-03-10T10:03:22.774Z,3844
2017-03-10T10:04:31.395Z,4124
2017-03-10T10:05:40.856Z,3840
2017-03-10T10:06:49.848Z,3872
2017-03-10T10:07:58.451Z,3844
2017-03-10T10:09:07.495Z,3784
2017-03-10T10:10:16.499Z,3788
2017-03-10T10:11:25.517Z,3732
2017-03-10T10:12:34.172Z,3820
2017-03-10T10:13:43.188Z,3456
2017-03-10T10:14:53.433Z,3976
2017-03-10T10:16:02.882Z,4088
2017-03-10T10:17:11.908Z,4200
2017-03-10T10:18:20.931Z,5080
2017-03-10T10:19:29.572Z,4960
2017-03-10T10:20:38.648Z,4756
2017-03-10T10:21:48.110Z,4616
2017-03-10T10:22:56.726Z,4128
2017-03-10T10:24:05.765Z,3896
2017-03-10T10:25:15.186Z,3920
2017-03-10T10:26:24.206Z,4136
2017-03-10T10:27:34.296Z,4236
2017-03-10T10:28:42.913Z,4220
2017-03-10T10:29:51.526Z,4064
2017-03-10T10:31:00.135Z,4576
2017-03-10T10:32:09.139Z,6260
2017-03-10T10:33:18.973Z,6576
2017-03-10T10:34:28.397Z,6396
2017-03-10T10:35:36.999Z,6588
2017-03-10T10:36:45.617Z,6224
2017-03-10T10:37:54.628Z,5776
2017-03-10T10:39:03.685Z,6300
2017-03-10T10:40:12.288Z,7204
2017-03-10T10:41:21.308Z,7832
2017-03-10T10:42:31.116Z,8072
2017-03-10T10:43:39.745Z,7012
2017-03-10T10:44:49.140Z,6412
2017-03-10T10:45:57.788Z,6320
2017-03-10T10:47:06.497Z,5936
2017-03-10T10:48:15.119Z,5080
2017-03-10T10:49:24.320Z,4656
2017-03-10T10:50:33.376Z,4336
2017-03-10T10:51:42.022Z,3708
2017-03-10T10:52:51.420Z,3308
2017-03-10T10:54:00.025Z,3260
2017-03-10T10:55:09.035Z,3568
2017-03-10T10:56:18.073Z,3752
2017-03-10T10:57:26.675Z,3752
2017-03-10T10:58:35.284Z,3740
2017-03-10T10:59:44.291Z,3732
2017-03-10T11:00:52.944Z,3756
2017-03-10T11:02:01.991Z,3652
2017-03-10T11:03:10.618Z,3616
2017-03-10T11:04:19.636Z,3572
2017-03-10T11:05:29.046Z,3568
2017-03-10T11:06:38.075Z,3636
2017-03-10T11:07:47.078Z,3660
2017-03-10T11:08:56.885Z,3664
2017-03-10T11:10:05.987Z,3620
2017-03-10T11:11:15.110Z,3588
2017-03-10T11:12:23.790Z,3568
2017-03-10T11:13:32.799Z,3592
2017-03-10T11:14:42.211Z,3656
2017-03-10T11:15:50.824Z,3704
2017-03-10T11:16:59.733Z,3576
2017-03-10T11:18:08.746Z,3504
2017-03-10T11:19:17.750Z,3532
2017-03-10T11:20:26.361Z,3548
2017-03-10T11:21:35.383Z,3600
2017-03-10T11:22:44.387Z,3576
2017-03-10T11:23:52.984Z,3576
2017-03-10T11:25:02.781Z,3612
2017-03-10T11:26:11.804Z,3752
2017-03-10T11:27:21.075Z,3860
2017-03-10T11:28:30.078Z,3760
2017-03-10T11:29:39.073Z,3696
2017-03-10T11:30:48.080Z,3668
2017-03-10T11:31:58.291Z,3672
2017-03-10T11:33:08.095Z,3708
2017-03-10T11:34:16.707Z,3700
2017-03-10T11:35:25.713Z,3704
2017-03-10T11:36:35.130Z,3716
2017-03-10T11:37:45.288Z,3740
2017-03-10T11:38:53.901Z,3776
2017-03-10T11:40:02.920Z,3756
2017-03-10T11:41:11.562Z,3736
2017-03-10T11:42:20.600Z,3620
2017-03-10T11:43:29.613Z,3552
2017-03-10T11:44:38.615Z,3532
2017-03-10T11:45:47.758Z,3536
2017-03-10T11:46:56.833Z,3536
2017-03-10T11:48:05.692Z,3544
2017-03-10T11:49:15.092Z,3652
2017-03-10T11:50:24.106Z,3768
2017-03-10T11:51:33.504Z,3732
2017-03-10T11:52:42.564Z,3648
2017-03-10T11:53:52.022Z,3652
2017-03-10T11:55:01.435Z,3604
2017-03-10T11:56:10.472Z,3608
2017-03-10T11:57:19.482Z,3640
2017-03-10T11:58:28.779Z,3708
2017-03-10T11:59:38.237Z,3764
2017-03-10T12:00:47.276Z,3800
2017-03-10T12:01:56.675Z,3788
2017-03-10T12:03:06.073Z,3752
2017-03-10T12:04:14.674Z,3804
2017-03-10T12:05:23.700Z,3900
2017-03-10T12:06:32.713Z,3980
2017-03-10T12:07:41.741Z,4104
2017-03-10T12:08:50.349Z,4264
2017-03-10T12:10:00.296Z,4592
2017-03-10T12:11:09.156Z,4836
2017-03-10T12:12:18.691Z,4716
2017-03-10T12:13:27.399Z,4348
2017-03-10T12:14:36.891Z,4216
2017-03-10T12:15:45.500Z,4916
2017-03-10T12:16:54.963Z,5276
2017-03-10T12:18:04.041Z,5440
2017-03-10T12:19:13.067Z,5484
2017-03-10T12:20:22.117Z,5452
2017-03-10T12:21:31.897Z,5144
2017-03-10T12:22:41.402Z,5212
2017-03-10T12:23:50.472Z,5800
2017-03-10T12:24:59.506Z,5672
2017-03-10T12:26:08.970Z,5712
2017-03-10T12:27:19.175Z,5316
2017-03-10T12:28:27.819Z,5100
2017-03-10T12:29:36.850Z,4944
2017-03-10T12:30:45.899Z,4964
2017-03-10T12:31:55.366Z,5076
2017-03-10T12:33:04.396Z,4780
2017-03-10T12:34:13.428Z,4724
2017-03-10T12:35:22.051Z,4704
2017-03-10T12:36:31.087Z,4560
2017-03-10T12:37:40.113Z,4276
2017-03-10T12:38:48.778Z,4000
2017-03-10T12:39:57.389Z,3920
2017-03-10T12:41:06.425Z,4032
2017-03-10T12:42:15.557Z,4120
2017-03-10T12:43:25.028Z,4216
2017-03-10T12:44:37.511Z,4308
2017-03-10T12:45:46.592Z,4468
2017-03-10T12:46:55.243Z,4580
2017-03-10T12:48:04.281Z,4660
2017-03-10T12:49:13.344Z,4712
2017-03-10T12:50:22.788Z,4592
2017-03-10T12:51:31.810Z,4492
2017-03-10T12:52:40.494Z,4492
2017-03-10T12:53:49.136Z,4448
2017-03-10T12:54:58.154Z,4372
2017-03-10T12:56:07.551Z,4288
2017-03-10T12:57:16.562Z,4388
2017-03-10T12:58:25.980Z,4364
2017-03-10T12:59:34.616Z,4328
2017-03-10T13:00:43.610Z,4336
2017-03-10T13:01:53.227Z,4388
2017-03-10T13:03:02.646Z,4336
2017-03-10T13:04:11.262Z,4328
2017-03-10T13:05:20.297Z,4348
2017-03-10T13:06:28.904Z,4368
2017-03-10T13:07:38.328Z,4336
2017-03-10T13:08:47.730Z,4300
2017-03-10T13:09:56.327Z,4304
2017-03-10T13:11:04.939Z,4208
2017-03-10T13:12:14.360Z,4012
2017-03-10T13:13:22.953Z,3756
2017-03-10T13:14:32.365Z,3696
2017-03-10T13:15:41.374Z,3632
2017-03-10T13:16:50.388Z,3820
2017-03-10T13:17:59.415Z,3684
2017-03-10T13:19:08.418Z,3588
2017-03-10T13:20:17.432Z,3944
2017-03-10T13:21:27.517Z,4056
2017-03-10T13:22:36.914Z,4352
2017-03-10T13:23:46.337Z,4244
2017-03-10T13:24:55.378Z,4012
2017-03-10T13:26:04.372Z,4056
2017-03-10T13:27:12.974Z,3936
2017-03-10T13:28:22.008Z,4024
2017-03-10T13:29:31.441Z,4052
2017-03-10T13:30:40.856Z,3988
2017-03-10T13:31:49.476Z,4156
2017-03-10T13:32:58.484Z,4120
2017-03-10T13:34:07.091Z,4080
2017-03-10T13:35:16.135Z,4048
2017-03-10T13:36:25.146Z,3916
2017-03-10T13:37:34.543Z,3788
2017-03-10T13:38:43.553Z,3776
2017-03-10T13:39:52.561Z,3488
2017-03-10T13:41:01.566Z,3504
2017-03-10T13:42:10.428Z,3576
2017-03-10T13:43:19.019Z,3484
2017-03-10T13:44:28.825Z,3464
2017-03-10T13:45:37.433Z,3420
2017-03-10T13:46:47.241Z,3412
2017-03-10T13:47:56.653Z,3420
2017-03-10T13:49:05.667Z,3468
2017-03-10T13:50:14.660Z,3524
2017-03-10T13:51:23.660Z,3740
2017-03-10T13:52:33.320Z,3772
2017-03-10T13:53:41.928Z,3696
2017-03-10T13:54:50.562Z,3924
2017-03-10T13:55:59.159Z,4232
2017-03-10T13:57:08.159Z,4836
2017-03-10T13:58:16.778Z,5000
2017-03-10T13:59:25.376Z,5416
2017-03-10T14:00:34.375Z,5596
2017-03-10T14:01:43.018Z,5556
2017-03-10T14:02:52.043Z,5628
2017-03-10T14:04:01.066Z,5752
2017-03-10T14:05:09.680Z,5920
2017-03-10T14:06:18.371Z,6092
2017-03-10T14:07:27.373Z,6340
2017-03-10T14:08:36.680Z,6576
2017-03-10T14:09:45.332Z,6744
2017-03-10T14:10:54.826Z,7032
2017-03-10T14:12:03.837Z,7208
2017-03-10T14:13:12.873Z,7328
2017-03-10T14:14:21.495Z,7412
2017-03-10T14:15:30.114Z,7524
2017-03-10T14:16:39.540Z,7700
2017-03-10T14:17:48.171Z,7888
2017-03-10T14:18:57.201Z,8012
2017-03-10T14:20:05.828Z,8052
2017-03-10T14:21:15.227Z,7964
2017-03-10T14:22:24.769Z,8144
2017-03-10T14:23:34.177Z,8564
2017-03-10T14:24:43.181Z,8696
2017-03-10T14:25:52.190Z,8900
2017-03-10T14:27:01.607Z,8928
2017-03-10T14:28:10.981Z,8832
2017-03-10T14:29:20.099Z,8760
2017-03-10T14:30:28.739Z,8540
2017-03-10T14:31:38.182Z,8232
2017-03-10T14:32:47.595Z,7984
2017-03-10T14:33:56.993Z,8160
2017-03-10T14:35:05.591Z,8384
2017-03-10T14:36:14.604Z,8400
2017-03-10T14:37:24.025Z,7988
2017-03-10T14:38:32.621Z,7640
2017-03-10T14:39:42.022Z,7380
2017-03-10T14:40:51.424Z,7216
2017-03-10T14:42:00.456Z,7068
2017-03-10T14:43:09.859Z,6996
2017-03-10T14:44:19.269Z,6924
2017-03-10T14:45:28.302Z,6828
2017-03-10T14:46:37.317Z,6744
2017-03-10T14:47:46.720Z,6676
2017-03-10T14:48:55.757Z,6588
2017-03-10T14:50:05.160Z,6496
2017-03-10T14:51:13.805Z,6404
2017-03-10T14:52:23.612Z,6320
2017-03-10T14:53:32.627Z,6264
2017-03-10T14:54:41.498Z,6308
2017-03-10T14:55:50.493Z,6296
2017-03-10T14:56:59.108Z,6224
2017-03-10T14:58:07.722Z,6204
2017-03-10T14:59:16.738Z,6172
2017-03-10T15:00:26.562Z,6116
2017-03-10T15:01:35.159Z,6076
2017-03-10T15:02:44.166Z,6032
2017-03-10T15:03:52.782Z,5988
2017-03-10T15:05:02.029Z,5960
2017-03-10T15:06:10.658Z,5936
2017-03-10T15:07:19.711Z,5940
2017-03-10T15:08:28.711Z,5956
2017-03-10T15:09:38.143Z,5996
2017-03-10T15:10:46.766Z,6096
2017-03-10T15:11:56.180Z,6208
2017-03-10T15:13:05.187Z,6276
2017-03-10T15:14:14.184Z,6296
2017-03-10T15:15:23.185Z,6288
2017-03-10T15:16:31.810Z,6276
2017-03-10T15:17:40.818Z,6244
2017-03-10T15:18:50.256Z,6324
2017-03-10T15:19:58.885Z,6392
2017-03-10T15:21:07.494Z,6448
2017-03-10T15:22:16.497Z,6256
2017-03-10T15:23:25.109Z,6216
2017-03-10T15:24:34.919Z,6220
2017-03-10T15:25:44.094Z,6088
2017-03-10T15:26:53.100Z,5904
2017-03-10T15:28:02.148Z,5712
2017-03-10T15:29:11.681Z,5544
2017-03-10T15:30:20.681Z,5456
2017-03-10T15:31:29.697Z,5292
2017-03-10T15:32:39.106Z,5288
2017-03-10T15:33:48.118Z,5420
2017-03-10T15:34:57.123Z,5436
2017-03-10T15:36:06.130Z,5276
2017-03-10T15:37:15.138Z,5276
2017-03-10T15:38:24.162Z,5156
2017-03-10T15:39:33.191Z,5012
2017-03-10T15:40:42.598Z,4808
2017-03-10T15:41:51.609Z,4580
2017-03-10T15:43:01.056Z,4480
2017-03-10T15:44:10.757Z,4372
2017-03-10T15:45:19.420Z,4280
2017-03-10T15:46:28.017Z,4200
2017-03-10T15:47:37.035Z,4124
2017-03-10T15:48:46.040Z,4040
2017-03-10T15:49:55.055Z,3932
2017-03-10T15:51:04.089Z,3780
2017-03-10T15:52:12.700Z,3616
2017-03-10T15:53:22.100Z,3476
2017-03-10T15:54:31.108Z,3344
2017-03-10T15:55:39.715Z,3212